Time;durP1;ratioP1;P1;durP2;ratioP2;P2;SDS_P1;SDS_P2;PMS_P1;PMS_P2;Temp;Humidity;BMP_temperature;BMP_pressure;BME280_temperature;BME280_humidity;BME280_pressure;Samples;Min_cycle;Max_cycle;Signal;HPM_P1;HPM_P2
2021/12/26 00:02:06;;;;;;;23.52;14.13;;;;;;;;;;5054790;28;20016;-75
2021/12/26 00:04:32;;;;;;;24.55;11.88;;;;;;;;;;5054591;28;20035;-74
2021/12/26 00:06:58;;;;;;;26.45;14.20;;;;;;;;;;5054845;28;20391;-74
2021/12/26 00:09:24;;;;;;;21.08;11.38;;;;;;;;;;5055985;28;20016;-74
2021/12/26 00:11:49;;;;;;;24.48;12.38;;;;;;;;;;5054802;28;20359;-74
2021/12/26 00:14:14;;;;;;;23.48;12.85;;;;;;;;;;5055146;28;20025;-74
2021/12/26 00:16:42;;;;;;;26.98;16.17;;;;;;;;;;5056484;28;20024;-74
2021/12/26 00:19:07;;;;;;;32.90;16.95;;;;;;;;;;5068616;28;20574;-74
2021/12/26 00:21:32;;;;;;;34.60;20.85;;;;;;;;;;5066144;28;20044;-74
2021/12/26 00:23:58;;;;;;;32.25;17.08;;;;;;;;;;5057001;28;20030;-74
2021/12/26 00:26:24;;;;;;;22.08;14.18;;;;;;;;;;5057793;28;20048;-74
2021/12/26 00:28:49;;;;;;;30.95;19.65;;;;;;;;;;5058340;28;20017;-75
2021/12/26 00:31:16;;;;;;;21.67;13.50;;;;;;;;;;5059158;28;20025;-74
2021/12/26 00:33:42;;;;;;;26.67;16.30;;;;;;;;;;5058260;28;20031;-73
2021/12/26 00:36:07;;;;;;;37.72;22.27;;;;;;;;;;5057885;28;20036;-72
2021/12/26 00:38:33;;;;;;;34.45;23.70;;;;;;;;;;5058633;28;20020;-74
2021/12/26 00:40:58;;;;;;;27.38;19.65;;;;;;;;;;5056373;28;20512;-74
2021/12/26 00:43:24;;;;;;;20.30;13.35;;;;;;;;;;5058504;28;20116;-73
2021/12/26 00:45:49;;;;;;;38.15;22.70;;;;;;;;;;5058660;28;20034;-73
2021/12/26 00:48:14;;;;;;;32.88;20.35;;;;;;;;;;5067978;28;20082;-74
2021/12/26 00:50:41;;;;;;;36.20;21.63;;;;;;;;;;5059018;28;20031;-73
2021/12/26 00:53:07;;;;;;;20.08;12.85;;;;;;;;;;5057613;28;20462;-72
2021/12/26 00:55:33;;;;;;;22.77;11.35;;;;;;;;;;5056818;28;20028;-73
2021/12/26 00:57:58;;;;;;;25.58;12.48;;;;;;;;;;5057843;28;20044;-73
2021/12/26 01:00:28;;;;;;;33.22;15.70;;;;;;;;;;5057609;28;20050;-73
2021/12/26 01:02:53;;;;;;;;;;;;;;;;;;5058216;28;20400;-73
2021/12/26 01:05:20;;;;;;;28.37;12.43;;;;;;;;;;5056448;28;19916;-73
2021/12/26 01:08:00;;;;;;;31.55;16.77;;;;;;;;;;5058107;28;20613;-73
2021/12/26 01:10:27;;;;;;;14.18;8.15;;;;;;;;;;5058618;28;20055;-74
2021/12/26 01:12:53;;;;;;;23.48;12.52;;;;;;;;;;5056069;28;20416;-75
2021/12/26 01:15:19;;;;;;;15.30;9.32;;;;;;;;;;5057361;28;20029;-74
2021/12/26 01:17:45;;;;;;;16.20;10.18;;;;;;;;;;5057464;28;20112;-73
2021/12/26 01:20:36;;;;;;;18.35;10.02;;;;;;;;;;5057728;28;20017;-74
2021/12/26 01:23:02;;;;;;;24.80;14.55;;;;;;;;;;5057191;28;20012;-73
2021/12/26 01:25:27;;;;;;;30.65;15.75;;;;;;;;;;5057389;28;20412;-74
2021/12/26 01:27:52;;;;;;;15.68;8.88;;;;;;;;;;5057833;28;20028;-74
2021/12/26 01:30:18;;;;;;;18.38;9.40;;;;;;;;;;5056627;28;20606;-72
2021/12/26 01:32:43;;;;;;;12.88;7.78;;;;;;;;;;5057983;28;20724;-73
2021/12/26 01:35:08;;;;;;;11.25;8.18;;;;;;;;;;5057437;28;20563;-73
2021/12/26 01:37:34;;;;;;;15.23;9.13;;;;;;;;;;5056766;28;20780;-75
2021/12/26 01:39:59;;;;;;;17.17;9.07;;;;;;;;;;5058093;28;20020;-73
2021/12/26 01:42:26;;;;;;;20.92;11.57;;;;;;;;;;5056958;28;20100;-73
2021/12/26 01:44:51;;;;;;;14.52;8.57;;;;;;;;;;5055593;28;20052;-74
2021/12/26 01:47:16;;;;;;;18.00;10.68;;;;;;;;;;5057689;28;20052;-73
2021/12/26 01:49:42;;;;;;;12.27;8.23;;;;;;;;;;5056556;28;20436;-73
2021/12/26 01:52:07;;;;;;;16.13;9.80;;;;;;;;;;5057962;28;20078;-73
2021/12/26 01:54:39;;;;;;;11.93;7.47;;;;;;;;;;5056926;28;20031;-74
2021/12/26 01:57:09;;;;;;;8.13;5.60;;;;;;;;;;5056973;28;20529;-73
2021/12/26 01:59:35;;;;;;;10.32;6.07;;;;;;;;;;5057285;28;20356;-73
2021/12/26 02:02:01;;;;;;;7.25;5.00;;;;;;;;;;5058192;28;20485;-74
2021/12/26 02:04:28;;;;;;;11.35;6.93;;;;;;;;;;5055085;28;20017;-75
2021/12/26 02:06:57;;;;;;;12.85;7.75;;;;;;;;;;5056742;28;20020;-73
2021/12/26 02:09:23;;;;;;;25.63;14.02;;;;;;;;;;5057026;28;20108;-73
2021/12/26 02:11:48;;;;;;;21.15;13.32;;;;;;;;;;5056988;28;20103;-73
2021/12/26 02:14:13;;;;;;;24.27;15.77;;;;;;;;;;5057527;28;20452;-74
2021/12/26 02:16:39;;;;;;;22.63;13.40;;;;;;;;;;5056853;28;20028;-73
2021/12/26 02:19:04;;;;;;;22.27;12.52;;;;;;;;;;5056193;28;20016;-73
2021/12/26 02:29:24;;;;;;;18.15;10.43;;;;;;;;;;5076836;28;20098;-73
2021/12/26 02:31:49;;;;;;;14.80;7.68;;;;;;;;;;5075945;28;20020;-73
2021/12/26 02:34:14;;;;;;;13.73;7.22;;;;;;;;;;5076099;28;20020;-73
2021/12/26 02:36:40;;;;;;;34.42;20.58;;;;;;;;;;5075966;28;20043;-74
2021/12/26 02:39:06;;;;;;;12.48;8.35;;;;;;;;;;5074361;28;20043;-73
2021/12/26 02:41:31;;;;;;;11.65;7.63;;;;;;;;;;5075724;28;20061;-74
2021/12/26 02:43:57;;;;;;;13.80;8.77;;;;;;;;;;5076082;28;20023;-75
2021/12/26 02:46:24;;;;;;;7.95;5.60;;;;;;;;;;5076559;28;20019;-74
2021/12/26 02:48:49;;;;;;;9.93;6.05;;;;;;;;;;5076169;28;20047;-74
2021/12/26 02:51:15;;;;;;;9.18;6.68;;;;;;;;;;5075895;28;20455;-74
2021/12/26 02:53:40;;;;;;;10.73;5.30;;;;;;;;;;5075838;28;20507;-74
2021/12/26 02:56:05;;;;;;;9.48;6.07;;;;;;;;;;5074271;28;20933;-75
2021/12/26 02:58:31;;;;;;;8.57;5.78;;;;;;;;;;5076564;28;20016;-73
2021/12/26 03:00:58;;;;;;;8.40;5.55;;;;;;;;;;5075511;28;20012;-74
2021/12/26 03:03:23;;;;;;;7.30;5.10;;;;;;;;;;5076901;28;20016;-73
2021/12/26 03:06:01;;;;;;;10.95;6.18;;;;;;;;;;5076064;28;20034;-75
2021/12/26 03:08:26;;;;;;;12.10;6.20;;;;;;;;;;5075963;28;20055;-74
2021/12/26 03:10:52;;;;;;;11.82;7.10;;;;;;;;;;5076560;28;20056;-73
2021/12/26 03:13:18;;;;;;;14.35;8.88;;;;;;;;;;5076032;28;20026;-73
2021/12/26 03:15:44;;;;;;;12.07;8.02;;;;;;;;;;5076795;28;20016;-73
2021/12/26 03:18:09;;;;;;;8.48;6.32;;;;;;;;;;5076329;28;20040;-73
2021/12/26 03:20:38;;;;;;;10.63;6.63;;;;;;;;;;5073559;28;20059;-73
2021/12/26 03:23:04;;;;;;;10.80;6.40;;;;;;;;;;5076269;28;20024;-73
2021/12/26 03:25:32;;;;;;;11.25;7.85;;;;;;;;;;5075576;28;20474;-74
2021/12/26 03:27:57;;;;;;;15.75;9.15;;;;;;;;;;5075839;28;20049;-74
2021/12/26 03:30:24;;;;;;;14.77;9.27;;;;;;;;;;5075842;28;20016;-72
2021/12/26 03:32:49;;;;;;;13.35;7.10;;;;;;;;;;5075520;28;20024;-73
2021/12/26 03:35:15;;;;;;;20.83;10.98;;;;;;;;;;5074808;28;20020;-72
2021/12/26 03:37:41;;;;;;;21.08;11.18;;;;;;;;;;5075533;28;20536;-72
2021/12/26 03:40:07;;;;;;;17.35;9.32;;;;;;;;;;5075275;28;20366;-73
2021/12/26 03:42:32;;;;;;;14.18;8.55;;;;;;;;;;5073517;28;20106;-75
2021/12/26 03:44:58;;;;;;;12.15;6.45;;;;;;;;;;5075442;28;20095;-75
2021/12/26 03:47:24;;;;;;;7.85;4.80;;;;;;;;;;5075264;28;20016;-73
2021/12/26 03:49:50;;;;;;;8.90;5.18;;;;;;;;;;5075837;28;20099;-74
2021/12/26 03:52:15;;;;;;;13.55;7.03;;;;;;;;;;5075168;28;20012;-73
2021/12/26 03:54:41;;;;;;;7.38;4.35;;;;;;;;;;5077758;28;20340;-73
2021/12/26 03:57:06;;;;;;;10.77;6.15;;;;;;;;;;5078952;28;20099;-74
2021/12/26 03:59:31;;;;;;;9.98;6.35;;;;;;;;;;5079367;28;20016;-75
2021/12/26 04:01:57;;;;;;;14.23;7.80;;;;;;;;;;5079846;28;20031;-74
2021/12/26 04:04:23;;;;;;;16.58;8.93;;;;;;;;;;5079174;28;20359;-75
2021/12/26 04:06:48;;;;;;;11.27;5.60;;;;;;;;;;5078819;28;20106;-74
2021/12/26 04:09:13;;;;;;;15.13;7.72;;;;;;;;;;5078954;28;20043;-74
2021/12/26 04:11:42;;;;;;;13.68;7.60;;;;;;;;;;5077438;28;20423;-73
2021/12/26 04:14:07;;;;;;;10.95;6.50;;;;;;;;;;5079876;28;20030;-74
2021/12/26 04:16:33;;;;;;;10.27;6.55;;;;;;;;;;5078445;28;20023;-73
2021/12/26 04:18:58;;;;;;;9.35;6.70;;;;;;;;;;5078930;28;20024;-74
2021/12/26 04:21:23;;;;;;;10.60;6.35;;;;;;;;;;5076923;28;20016;-73
2021/12/26 04:23:49;;;;;;;10.93;7.32;;;;;;;;;;5077798;28;20452;-72
2021/12/26 04:26:14;;;;;;;10.77;6.10;;;;;;;;;;5078711;28;20020;-73
2021/12/26 04:28:39;;;;;;;15.57;7.57;;;;;;;;;;5079352;28;20112;-74
2021/12/26 04:31:05;;;;;;;12.02;7.40;;;;;;;;;;5078647;28;20048;-73
2021/12/26 04:33:30;;;;;;;12.02;6.13;;;;;;;;;;5078623;28;20016;-73
2021/12/26 04:35:55;;;;;;;18.33;8.52;;;;;;;;;;5078400;28;20069;-73
2021/12/26 04:38:21;;;;;;;14.07;7.78;;;;;;;;;;5078523;28;20032;-74
2021/12/26 04:40:46;;;;;;;11.18;6.13;;;;;;;;;;5078315;28;20042;-73
2021/12/26 04:43:12;;;;;;;12.55;7.15;;;;;;;;;;5078692;28;20447;-74
2021/12/26 04:45:37;;;;;;;8.48;5.15;;;;;;;;;;5078973;28;20020;-75
2021/12/26 04:48:03;;;;;;;12.93;7.43;;;;;;;;;;5078222;28;20031;-73
2021/12/26 04:50:29;;;;;;;7.22;4.40;;;;;;;;;;5078047;28;20019;-73
2021/12/26 04:52:55;;;;;;;7.65;3.83;;;;;;;;;;5076584;28;20063;-73
2021/12/26 04:55:22;;;;;;;4.65;3.47;;;;;;;;;;5076593;28;20089;-74
2021/12/26 04:57:48;;;;;;;5.00;3.60;;;;;;;;;;5078073;28;20462;-73
2021/12/26 05:00:15;;;;;;;4.47;3.10;;;;;;;;;;5078072;28;20095;-72
2021/12/26 05:02:40;;;;;;;6.07;3.15;;;;;;;;;;5078328;28;20012;-72
2021/12/26 05:05:07;;;;;;;4.88;2.60;;;;;;;;;;5077370;28;20038;-73
2021/12/26 05:07:33;;;;;;;5.18;2.83;;;;;;;;;;5079096;28;20070;-73
2021/12/26 05:09:58;;;;;;;6.35;3.05;;;;;;;;;;5077959;28;20020;-72
2021/12/26 05:12:24;;;;;;;6.43;3.80;;;;;;;;;;5078009;28;20016;-73
2021/12/26 05:14:50;;;;;;;16.77;9.95;;;;;;;;;;5077214;28;20016;-74
2021/12/26 05:17:15;;;;;;;8.95;5.13;;;;;;;;;;5077819;28;20114;-74
2021/12/26 05:19:40;;;;;;;4.88;2.70;;;;;;;;;;5078435;28;20020;-72
2021/12/26 05:22:06;;;;;;;3.85;3.00;;;;;;;;;;5077560;28;20457;-73
2021/12/26 05:24:31;;;;;;;5.05;2.90;;;;;;;;;;5077969;28;20051;-73
2021/12/26 05:26:56;;;;;;;5.38;3.47;;;;;;;;;;5078312;28;20019;-73
2021/12/26 05:29:22;;;;;;;4.10;2.97;;;;;;;;;;5075884;28;20512;-72
2021/12/26 05:31:47;;;;;;;5.50;3.20;;;;;;;;;;5078224;28;20443;-73
2021/12/26 05:34:12;;;;;;;5.28;3.42;;;;;;;;;;5077771;28;20020;-74
2021/12/26 05:36:38;;;;;;;4.15;3.15;;;;;;;;;;5075882;28;20482;-75
2021/12/26 05:39:03;;;;;;;8.00;2.90;;;;;;;;;;5077726;28;20489;-74
2021/12/26 05:41:31;;;;;;;5.85;3.65;;;;;;;;;;5077347;28;20019;-75
2021/12/26 05:43:56;;;;;;;8.93;5.15;;;;;;;;;;5075565;28;20103;-75
2021/12/26 05:46:21;;;;;;;9.48;5.47;;;;;;;;;;5077471;28;20181;-74
2021/12/26 05:48:47;;;;;;;8.00;5.25;;;;;;;;;;5078301;28;20027;-73
2021/12/26 05:51:12;;;;;;;7.43;5.53;;;;;;;;;;5078194;28;20071;-73
2021/12/26 05:53:38;;;;;;;8.80;6.03;;;;;;;;;;5077148;28;20556;-74
2021/12/26 05:56:03;;;;;;;14.68;7.20;;;;;;;;;;5077521;28;20020;-72
2021/12/26 05:58:28;;;;;;;16.30;9.57;;;;;;;;;;5077349;28;20032;-74
2021/12/26 06:00:54;;;;;;;14.50;8.30;;;;;;;;;;5076658;28;20040;-74
2021/12/26 06:03:19;;;;;;;22.02;11.93;;;;;;;;;;5077839;28;20469;-75
2021/12/26 06:05:44;;;;;;;23.00;13.85;;;;;;;;;;5077596;28;20069;-74
2021/12/26 06:08:10;;;;;;;16.10;10.73;;;;;;;;;;5076682;28;20038;-74
2021/12/26 06:10:36;;;;;;;18.48;11.80;;;;;;;;;;5076751;28;20094;-74
2021/12/26 06:13:02;;;;;;;20.67;14.77;;;;;;;;;;5077236;28;20103;-75
2021/12/26 06:15:27;;;;;;;26.80;20.73;;;;;;;;;;5074888;28;20115;-75
2021/12/26 06:17:52;;;;;;;29.38;18.35;;;;;;;;;;5075501;28;20107;-75
2021/12/26 06:20:18;;;;;;;13.68;9.00;;;;;;;;;;5076368;28;20024;-74
2021/12/26 06:22:44;;;;;;;13.45;7.80;;;;;;;;;;5077181;28;20024;-75
2021/12/26 06:25:09;;;;;;;11.00;9.18;;;;;;;;;;5076567;28;20073;-74
2021/12/26 06:27:36;;;;;;;11.30;8.40;;;;;;;;;;5076979;28;20024;-73
2021/12/26 06:30:02;;;;;;;13.32;9.27;;;;;;;;;;5076374;28;20016;-75
2021/12/26 06:32:28;;;;;;;10.85;7.47;;;;;;;;;;5076694;28;20062;-74
2021/12/26 06:34:53;;;;;;;12.25;8.95;;;;;;;;;;5076435;28;20423;-73
2021/12/26 06:37:18;;;;;;;14.25;9.02;;;;;;;;;;5076180;28;20055;-73
2021/12/26 06:39:44;;;;;;;33.90;20.38;;;;;;;;;;5075836;28;20016;-73
2021/12/26 06:42:25;;;;;;;23.98;13.10;;;;;;;;;;5076226;28;20115;-73
2021/12/26 06:44:55;;;;;;;18.60;8.60;;;;;;;;;;5058216;28;20052;-74
2021/12/26 06:47:22;;;;;;;27.20;15.18;;;;;;;;;;5073159;28;20742;-75
2021/12/26 06:49:47;;;;;;;26.30;13.10;;;;;;;;;;5066604;28;20024;-73
2021/12/26 06:52:12;;;;;;;39.15;20.02;;;;;;;;;;5071555;28;20028;-74
2021/12/26 06:54:40;;;;;;;52.50;30.80;;;;;;;;;;5064164;28;20048;-74
2021/12/26 06:57:06;;;;;;;38.42;22.63;;;;;;;;;;5054696;28;20024;-74
2021/12/26 06:59:31;;;;;;;76.80;41.75;;;;;;;;;;5074466;28;20077;-73
2021/12/26 07:01:56;;;;;;;64.65;37.80;;;;;;;;;;5075985;28;20023;-75
2021/12/26 07:04:22;;;;;;;53.42;31.65;;;;;;;;;;5075245;28;20458;-76
2021/12/26 07:06:47;;;;;;;73.38;45.28;;;;;;;;;;5074207;28;20080;-75
2021/12/26 07:09:13;;;;;;;64.90;40.28;;;;;;;;;;5075403;28;20432;-74
2021/12/26 07:11:38;;;;;;;55.38;35.58;;;;;;;;;;5074961;28;20111;-78
2021/12/26 07:14:04;;;;;;;51.28;29.67;;;;;;;;;;5075515;28;20024;-74
2021/12/26 07:16:29;;;;;;;40.13;27.75;;;;;;;;;;5075340;28;20770;-76
2021/12/26 07:18:54;;;;;;;57.83;43.08;;;;;;;;;;5075437;28;20581;-75
2021/12/26 07:21:20;;;;;;;63.65;45.33;;;;;;;;;;5076022;28;20035;-76
2021/12/26 07:23:45;;;;;;;25.30;18.40;;;;;;;;;;5076231;28;20570;-75
2021/12/26 07:26:11;;;;;;;19.85;15.90;;;;;;;;;;5074502;28;20102;-75
2021/12/26 07:28:36;;;;;;;140.43;81.85;;;;;;;;;;5074927;28;20053;-75
2021/12/26 07:31:02;;;;;;;222.23;121.85;;;;;;;;;;5073315;28;20556;-73
2021/12/26 07:33:28;;;;;;;108.90;61.72;;;;;;;;;;5074556;28;20474;-74
2021/12/26 07:35:53;;;;;;;36.78;22.27;;;;;;;;;;5074721;28;20040;-74
2021/12/26 07:38:20;;;;;;;21.90;13.65;;;;;;;;;;5074590;28;20108;-74
2021/12/26 07:40:45;;;;;;;18.40;14.30;;;;;;;;;;5074721;28;20028;-74
2021/12/26 07:43:11;;;;;;;26.88;22.98;;;;;;;;;;5075246;28;20077;-73
2021/12/26 07:45:37;;;;;;;11.45;8.57;;;;;;;;;;5075068;28;20020;-72
2021/12/26 07:48:02;;;;;;;38.63;29.40;;;;;;;;;;5074955;28;20043;-73
2021/12/26 07:50:28;;;;;;;11.98;8.95;;;;;;;;;;5074968;28;20119;-75
2021/12/26 07:52:54;;;;;;;38.83;27.98;;;;;;;;;;5073554;28;20099;-74
2021/12/26 07:55:19;;;;;;;7.05;6.15;;;;;;;;;;5073050;28;20081;-74
2021/12/26 07:58:03;;;;;;;27.30;14.50;;;;;;;;;;5074655;28;20032;-74
2021/12/26 08:00:28;;;;;;;67.15;38.05;;;;;;;;;;5070106;28;20029;-71
2021/12/26 08:02:54;;;;;;;38.10;20.02;;;;;;;;;;5069317;28;20020;-75
2021/12/26 08:05:21;;;;;;;35.85;23.15;;;;;;;;;;5075071;28;20020;-75
2021/12/26 08:07:46;;;;;;;41.67;24.58;;;;;;;;;;5074559;28;20250;-74
2021/12/26 08:10:12;;;;;;;43.40;27.90;;;;;;;;;;5073335;28;20435;-74
2021/12/26 08:12:37;;;;;;;46.00;28.17;;;;;;;;;;5074891;28;20838;-74
2021/12/26 08:15:03;;;;;;;18.63;12.85;;;;;;;;;;5073512;28;20024;-74
2021/12/26 08:17:29;;;;;;;39.28;18.95;;;;;;;;;;5073211;28;20101;-74
2021/12/26 08:19:55;;;;;;;78.20;41.55;;;;;;;;;;5074883;28;20512;-73
2021/12/26 08:22:20;;;;;;;120.60;63.15;;;;;;;;;;5073629;28;20020;-72
2021/12/26 08:24:46;;;;;;;131.98;63.30;;;;;;;;;;5075177;28;20492;-74
2021/12/26 08:27:11;;;;;;;146.23;67.28;;;;;;;;;;5074585;28;20091;-73
2021/12/26 08:29:37;;;;;;;173.00;80.25;;;;;;;;;;5074890;28;20042;-74
2021/12/26 08:32:03;;;;;;;91.05;40.80;;;;;;;;;;5074158;28;20016;-75
2021/12/26 08:34:28;;;;;;;58.85;29.95;;;;;;;;;;5074274;28;20012;-74
2021/12/26 08:37:04;;;;;;;214.07;106.70;;;;;;;;;;5072843;28;20051;-74
2021/12/26 08:39:34;;;;;;;61.90;28.50;;;;;;;;;;5074674;28;20031;-74
2021/12/26 08:41:59;;;;;;;30.05;15.82;;;;;;;;;;5077736;28;20073;-73
2021/12/26 08:44:25;;;;;;;21.38;11.57;;;;;;;;;;5078982;28;20024;-74
2021/12/26 08:46:51;;;;;;;11.15;7.18;;;;;;;;;;5079027;28;20447;-74
2021/12/26 08:49:17;;;;;;;14.45;8.10;;;;;;;;;;5077859;28;20012;-72
2021/12/26 08:51:42;;;;;;;20.77;13.30;;;;;;;;;;5078981;28;20041;-74
2021/12/26 08:54:08;;;;;;;150.18;76.88;;;;;;;;;;5077754;28;20099;-75
2021/12/26 08:56:33;;;;;;;126.13;60.58;;;;;;;;;;5075475;28;20451;-73
2021/12/26 08:58:59;;;;;;;83.55;42.67;;;;;;;;;;5076338;28;20479;-72
2021/12/26 09:01:24;;;;;;;73.50;37.15;;;;;;;;;;5078950;28;20762;-73
2021/12/26 09:03:50;;;;;;;73.93;38.42;;;;;;;;;;5077525;28;20141;-72
2021/12/26 09:06:15;;;;;;;61.85;36.58;;;;;;;;;;5077692;28;20523;-73
2021/12/26 09:08:41;;;;;;;61.85;39.10;;;;;;;;;;5075942;28;20056;-73
2021/12/26 09:11:06;;;;;;;143.57;87.55;;;;;;;;;;5077809;28;20443;-72
2021/12/26 09:13:33;;;;;;;37.33;24.25;;;;;;;;;;5077585;28;20020;-72
2021/12/26 09:15:58;;;;;;;32.17;19.40;;;;;;;;;;5076569;28;20099;-73
2021/12/26 09:18:23;;;;;;;36.97;23.70;;;;;;;;;;5074020;28;20114;-73
2021/12/26 09:20:49;;;;;;;50.63;32.10;;;;;;;;;;5075751;28;20103;-72
2021/12/26 09:23:14;;;;;;;214.23;99.10;;;;;;;;;;5076423;28;20016;-72
2021/12/26 09:25:40;;;;;;;207.45;103.22;;;;;;;;;;5075215;28;20023;-74
2021/12/26 09:28:05;;;;;;;140.65;83.47;;;;;;;;;;5076249;28;20123;-72
2021/12/26 09:30:30;;;;;;;148.18;77.53;;;;;;;;;;5075025;28;20056;-74
2021/12/26 09:32:56;;;;;;;52.22;32.05;;;;;;;;;;5076846;28;20065;-73
2021/12/26 09:35:21;;;;;;;40.70;28.42;;;;;;;;;;5076907;28;20469;-73
2021/12/26 09:37:47;;;;;;;32.78;21.40;;;;;;;;;;5076856;28;20475;-73
2021/12/26 09:40:13;;;;;;;28.73;19.80;;;;;;;;;;5077496;28;20084;-73
2021/12/26 09:42:39;;;;;;;79.22;46.42;;;;;;;;;;5076888;28;20028;-75
2021/12/26 09:45:05;;;;;;;72.30;40.83;;;;;;;;;;5076998;28;20020;-72
2021/12/26 09:47:31;;;;;;;50.20;30.58;;;;;;;;;;5077229;28;20023;-74
2021/12/26 09:49:56;;;;;;;101.60;59.67;;;;;;;;;;5076227;28;20012;-74
2021/12/26 09:52:22;;;;;;;72.15;41.03;;;;;;;;;;5076228;28;20012;-74
2021/12/26 09:54:47;;;;;;;71.88;41.25;;;;;;;;;;5077512;28;20024;-73
2021/12/26 09:57:12;;;;;;;41.78;25.50;;;;;;;;;;5077149;28;20059;-72
2021/12/26 09:59:38;;;;;;;63.83;39.05;;;;;;;;;;5076710;28;20070;-75
2021/12/26 10:02:11;;;;;;;50.42;32.72;;;;;;;;;;5077721;28;20098;-74
2021/12/26 10:04:37;;;;;;;52.90;32.30;;;;;;;;;;5076954;28;20016;-72
2021/12/26 10:07:32;;;;;;;55.92;34.35;;;;;;;;;;5077332;28;20416;-75
2021/12/26 10:09:57;;;;;;;39.42;24.15;;;;;;;;;;5076190;28;20036;-74
2021/12/26 10:12:23;;;;;;;41.40;29.42;;;;;;;;;;5077670;28;20027;-74
2021/12/26 10:14:49;;;;;;;60.85;37.78;;;;;;;;;;5077692;28;20024;-73
2021/12/26 10:17:19;;;;;;;121.72;75.72;;;;;;;;;;5076191;28;20024;-72
2021/12/26 10:19:45;;;;;;;103.80;64.40;;;;;;;;;;5076564;28;20451;-73
2021/12/26 10:22:12;;;;;;;80.88;43.33;;;;;;;;;;5076378;28;20023;-72
2021/12/26 10:24:39;;;;;;;113.78;67.38;;;;;;;;;;5076828;28;20038;-72
2021/12/26 10:27:04;;;;;;;76.82;43.45;;;;;;;;;;5076555;28;20034;-75
2021/12/26 10:29:39;;;;;;;66.80;38.80;;;;;;;;;;5077475;28;20016;-73
2021/12/26 10:32:04;;;;;;;107.88;65.32;;;;;;;;;;5077014;28;20102;-73
2021/12/26 10:34:34;;;;;;;108.22;64.72;;;;;;;;;;5074586;28;20107;-73
2021/12/26 10:37:01;;;;;;;35.00;21.63;;;;;;;;;;5076059;28;20071;-73
2021/12/26 10:39:31;;;;;;;52.15;27.55;;;;;;;;;;5076517;28;20355;-72
2021/12/26 10:41:58;;;;;;;28.63;18.23;;;;;;;;;;5075465;28;20081;-73
2021/12/26 10:44:27;;;;;;;54.92;40.00;;;;;;;;;;5077166;28;20091;-74
2021/12/26 10:46:54;;;;;;;43.05;29.48;;;;;;;;;;5075958;28;20020;-73
2021/12/26 10:49:20;;;;;;;35.85;23.35;;;;;;;;;;5076620;28;20038;-73
2021/12/26 10:51:46;;;;;;;17.98;10.52;;;;;;;;;;5076056;28;20062;-75
2021/12/26 10:54:25;;;;;;;18.33;9.43;;;;;;;;;;5076859;28;20020;-74
2021/12/26 10:57:13;;;;;;;20.00;12.15;;;;;;;;;;5076489;28;20032;-74
2021/12/26 10:59:39;;;;;;;17.50;10.77;;;;;;;;;;5076137;28;20016;-75
2021/12/26 11:02:05;;;;;;;19.70;13.40;;;;;;;;;;5075007;28;20016;-74
2021/12/26 11:04:30;;;;;;;23.25;15.45;;;;;;;;;;5076807;28;20027;-75
2021/12/26 11:07:08;;;;;;;22.35;14.40;;;;;;;;;;5075948;28;20093;-75
2021/12/26 11:09:34;;;;;;;22.02;13.43;;;;;;;;;;5076447;28;20020;-73
2021/12/26 11:12:09;;;;;;;15.43;9.88;;;;;;;;;;5076704;28;20027;-73
2021/12/26 11:15:07;;;;;;;13.05;8.45;;;;;;;;;;5075894;28;20069;-76
2021/12/26 11:17:42;;;;;;;9.98;7.00;;;;;;;;;;5051219;28;20040;-73
2021/12/26 11:20:08;;;;;;;10.60;6.38;;;;;;;;;;5076566;28;20019;-72
2021/12/26 11:22:34;;;;;;;13.88;7.85;;;;;;;;;;5076278;28;20483;-73
2021/12/26 11:24:59;;;;;;;25.55;18.52;;;;;;;;;;5075659;28;20020;-74
2021/12/26 11:27:25;;;;;;;15.50;13.80;;;;;;;;;;5075869;28;20023;-73
2021/12/26 11:29:52;;;;;;;18.38;13.80;;;;;;;;;;5075956;28;20880;-73
2021/12/26 11:32:18;;;;;;;15.68;10.82;;;;;;;;;;5075664;28;20439;-72
2021/12/26 11:34:47;;;;;;;21.17;16.48;;;;;;;;;;5075435;28;20020;-72
2021/12/26 11:37:13;;;;;;;15.60;9.90;;;;;;;;;;5075778;28;20168;-73
2021/12/26 11:39:39;;;;;;;12.27;8.77;;;;;;;;;;5075766;28;20087;-72
2021/12/26 11:42:04;;;;;;;8.10;5.38;;;;;;;;;;5075607;28;20024;-72
2021/12/26 11:44:32;;;;;;;16.20;12.80;;;;;;;;;;5075212;28;20016;-72
2021/12/26 11:47:17;;;;;;;13.98;11.77;;;;;;;;;;5076358;28;20016;-72
2021/12/26 11:50:05;;;;;;;16.58;10.82;;;;;;;;;;5075293;28;20024;-74
2021/12/26 11:52:42;;;;;;;17.13;13.93;;;;;;;;;;5074786;28;20519;-73
2021/12/26 11:55:13;;;;;;;20.45;12.93;;;;;;;;;;5076507;28;20028;-72
2021/12/26 11:57:57;;;;;;;8.93;6.07;;;;;;;;;;5076051;28;20482;-72
2021/12/26 12:00:27;;;;;;;15.88;10.13;;;;;;;;;;5075301;28;20820;-76
2021/12/26 12:02:53;;;;;;;17.48;10.32;;;;;;;;;;5075683;28;20024;-72
2021/12/26 12:05:27;;;;;;;38.55;23.33;;;;;;;;;;5073525;28;20024;-72
2021/12/26 12:07:59;;;;;;;50.88;31.33;;;;;;;;;;5074846;28;20024;-73
2021/12/26 12:10:31;;;;;;;57.80;33.58;;;;;;;;;;5074928;28;20020;-72
2021/12/26 12:12:57;;;;;;;43.65;25.55;;;;;;;;;;5075134;28;20470;-72
2021/12/26 12:15:41;;;;;;;53.45;30.63;;;;;;;;;;5077157;28;20030;-74
2021/12/26 12:18:09;;;;;;;39.90;23.20;;;;;;;;;;5079851;28;20027;-72
2021/12/26 12:20:34;;;;;;;60.20;35.95;;;;;;;;;;5078437;28;20012;-73
2021/12/26 12:23:02;;;;;;;66.13;36.58;;;;;;;;;;5078534;28;20024;-73
2021/12/26 12:25:34;;;;;;;62.80;34.67;;;;;;;;;;5080142;28;20328;-73
2021/12/26 12:28:10;;;;;;;46.72;25.40;;;;;;;;;;5077279;28;20810;-73
2021/12/26 12:30:36;;;;;;;68.00;34.22;;;;;;;;;;5079496;28;20050;-73
2021/12/26 12:33:14;;;;;;;56.05;31.25;;;;;;;;;;5078726;28;20008;-72
2021/12/26 12:35:50;;;;;;;74.70;45.63;;;;;;;;;;5079549;28;20020;-73
2021/12/26 12:38:33;;;;;;;49.10;28.65;;;;;;;;;;5078663;28;20024;-74
2021/12/26 12:40:59;;;;;;;52.22;31.23;;;;;;;;;;5079304;28;20024;-73
2021/12/26 12:43:25;;;;;;;61.35;33.13;;;;;;;;;;5078638;28;20022;-74
2021/12/26 12:45:54;;;;;;;54.25;31.35;;;;;;;;;;5079136;28;20012;-73
2021/12/26 12:48:30;;;;;;;52.42;28.48;;;;;;;;;;5078417;28;20550;-73
2021/12/26 12:50:58;;;;;;;58.13;31.15;;;;;;;;;;5078490;28;20020;-73
2021/12/26 12:53:40;;;;;;;81.10;35.30;;;;;;;;;;5078833;28;20029;-73
2021/12/26 12:56:06;;;;;;;54.28;30.25;;;;;;;;;;5077713;28;20020;-72
2021/12/26 12:58:32;;;;;;;46.08;24.55;;;;;;;;;;5078460;28;20534;-74
2021/12/26 13:00:57;;;;;;;45.67;25.08;;;;;;;;;;5079254;28;20107;-73
2021/12/26 13:03:23;;;;;;;39.45;23.92;;;;;;;;;;5077911;28;20099;-73
2021/12/26 13:05:49;;;;;;;37.08;23.08;;;;;;;;;;5078196;28;20012;-74
2021/12/26 13:08:25;;;;;;;36.50;22.85;;;;;;;;;;5077769;28;20024;-73
2021/12/26 13:10:53;;;;;;;27.02;15.40;;;;;;;;;;5078505;28;20020;-73
2021/12/26 13:13:21;;;;;;;43.28;26.58;;;;;;;;;;5077041;28;20081;-73
2021/12/26 13:15:53;;;;;;;56.92;34.33;;;;;;;;;;5077553;28;20053;-73
2021/12/26 13:18:18;;;;;;;43.92;26.45;;;;;;;;;;5077667;28;20344;-74
2021/12/26 13:20:47;;;;;;;44.20;25.92;;;;;;;;;;5078629;28;20027;-75
2021/12/26 13:23:13;;;;;;;27.48;17.42;;;;;;;;;;5077348;28;20024;-74
2021/12/26 13:25:39;;;;;;;39.42;23.50;;;;;;;;;;5077986;28;20024;-73
2021/12/26 13:28:16;;;;;;;39.45;23.90;;;;;;;;;;5079115;28;20358;-75
2021/12/26 13:30:43;;;;;;;47.90;28.48;;;;;;;;;;5077915;28;20020;-74
2021/12/26 13:33:14;;;;;;;45.90;25.30;;;;;;;;;;5077521;28;20065;-74
2021/12/26 13:35:40;;;;;;;58.75;32.47;;;;;;;;;;5078176;28;20016;-73
2021/12/26 13:38:08;;;;;;;72.20;36.17;;;;;;;;;;5078412;28;20039;-73
2021/12/26 13:40:35;;;;;;;91.78;43.35;;;;;;;;;;5078608;28;20099;-73
2021/12/26 13:43:00;;;;;;;81.50;37.75;;;;;;;;;;5077961;28;20012;-74
2021/12/26 13:45:33;;;;;;;50.33;26.40;;;;;;;;;;5075742;28;20023;-74
2021/12/26 13:47:59;;;;;;;76.65;39.45;;;;;;;;;;5077267;28;20030;-74
2021/12/26 13:50:24;;;;;;;43.30;25.73;;;;;;;;;;5077124;28;20020;-73
2021/12/26 13:53:04;;;;;;;53.30;28.10;;;;;;;;;;5077439;28;20065;-72
2021/12/26 13:55:37;;;;;;;67.18;36.40;;;;;;;;;;5077565;28;20016;-72
2021/12/26 13:58:07;;;;;;;50.60;30.08;;;;;;;;;;5077585;28;20016;-74
2021/12/26 14:00:32;;;;;;;75.22;34.22;;;;;;;;;;5075828;28;20020;-72
2021/12/26 14:03:02;;;;;;;63.03;29.67;;;;;;;;;;5075436;28;20472;-73
2021/12/26 14:05:27;;;;;;;46.75;27.45;;;;;;;;;;5076660;28;20016;-73
2021/12/26 14:07:59;;;;;;;46.25;29.08;;;;;;;;;;5078237;28;20073;-74
2021/12/26 14:10:25;;;;;;;36.65;23.95;;;;;;;;;;5077575;28;20028;-74
2021/12/26 14:12:55;;;;;;;35.30;21.05;;;;;;;;;;5076504;28;20019;-73
2021/12/26 14:15:28;;;;;;;35.08;23.15;;;;;;;;;;5077679;28;20055;-74
2021/12/26 14:17:59;;;;;;;51.20;34.55;;;;;;;;;;5077371;28;20405;-74
2021/12/26 14:20:26;;;;;;;49.08;34.78;;;;;;;;;;5076449;28;20020;-74
2021/12/26 14:22:51;;;;;;;34.53;21.58;;;;;;;;;;5076449;28;20363;-75
2021/12/26 14:25:17;;;;;;;41.33;26.85;;;;;;;;;;5077211;28;20054;-74
2021/12/26 14:27:43;;;;;;;40.88;26.38;;;;;;;;;;5077050;28;20034;-72
2021/12/26 14:30:09;;;;;;;54.08;36.67;;;;;;;;;;5076243;28;20020;-74
2021/12/26 14:32:34;;;;;;;55.60;39.83;;;;;;;;;;5076042;28;20016;-75